createdAt,value
2023-04-07T00:00:30.796Z,101581.38
2023-04-07T00:02:57.614Z,101587.47
2023-04-07T00:05:24.140Z,101590.88
2023-04-07T00:07:56.331Z,101587.47
2023-04-07T00:10:25.004Z,101590.22
2023-04-07T00:12:51.725Z,101590.06
2023-04-07T00:15:18.205Z,101596.19
2023-04-07T00:17:44.717Z,101595.41
2023-04-07T00:20:11.779Z,101600.56
2023-04-07T00:22:38.199Z,101595.69
2023-04-07T00:25:05.031Z,101595.81
2023-04-07T00:27:31.931Z,101600.06
2023-04-07T00:29:58.326Z,101600.84
2023-04-07T00:32:24.777Z,101599.22
2023-04-07T00:34:51.262Z,101601.97
2023-04-07T00:37:19.219Z,101607.16
2023-04-07T00:39:46.686Z,101603.75
2023-04-07T00:42:13.361Z,101602.28
2023-04-07T00:44:39.774Z,101602.28
2023-04-07T00:47:06.214Z,101599.69
2023-04-07T00:49:32.668Z,101597.09
2023-04-07T00:51:59.302Z,101598.19
2023-04-07T00:54:26.076Z,101602.56
2023-04-07T00:56:53.600Z,101596.56
2023-04-07T00:59:21.834Z,101611.28
2023-04-07T01:02:08.411Z,101602.84
2023-04-07T01:05:19.649Z,101597.66
2023-04-07T01:08:05.425Z,101604.63
2023-04-07T01:10:41.688Z,101604.78
2023-04-07T01:13:31.646Z,101596.03
2023-04-07T01:16:03.968Z,101602.03
2023-04-07T01:18:35.462Z,101597.00
2023-04-07T01:21:09.643Z,101602.19
2023-04-07T01:24:17.229Z,101597.81
2023-04-07T01:26:44.040Z,101597.81
2023-04-07T01:29:37.729Z,101599.59
2023-04-07T01:32:06.498Z,101604.78
2023-04-07T01:34:34.056Z,101597.16
2023-04-07T01:37:02.449Z,101603.13
2023-04-07T01:39:29.234Z,101604.78
2023-04-07T01:41:57.604Z,101605.06
2023-04-07T01:44:26.085Z,101600.69
2023-04-07T01:46:53.161Z,101600.84
2023-04-07T01:49:20.478Z,101603.28
2023-04-07T01:51:50.344Z,101606.00
2023-04-07T01:54:17.995Z,101606.00
2023-04-07T01:56:45.126Z,101597.44
2023-04-07T01:59:12.162Z,101603.41
2023-04-07T02:01:39.015Z,101597.44
2023-04-07T02:04:13.100Z,101603.41
2023-04-07T02:06:46.821Z,101594.72
2023-04-07T02:09:16.703Z,101599.88
2023-04-07T02:11:45.017Z,101602.47
2023-04-07T02:14:13.422Z,101603.13
2023-04-07T02:16:41.861Z,101597.97
2023-04-07T02:19:08.943Z,101601.50
2023-04-07T02:21:36.407Z,101600.69
2023-04-07T02:24:06.718Z,101608.31
2023-04-07T02:26:36.648Z,101612.53
2023-04-07T02:29:04.539Z,101608.31
2023-04-07T02:31:31.271Z,101609.94
2023-04-07T02:33:57.880Z,101609.13
2023-04-07T02:36:24.389Z,101613.47
2023-04-07T02:38:50.865Z,101608.31
2023-04-07T02:41:17.236Z,101605.72
2023-04-07T02:43:43.645Z,101611.69
2023-04-07T02:46:10.168Z,101597.00
2023-04-07T02:48:36.611Z,101602.34
2023-04-07T02:51:03.055Z,101603.28
2023-04-07T02:53:29.420Z,101606.53
2023-04-07T02:55:56.004Z,101606.66
2023-04-07T02:58:22.636Z,101609.13
2023-04-07T03:00:50.717Z,101608.16
2023-04-07T03:03:17.533Z,101612.53
2023-04-07T03:05:44.176Z,101604.63
2023-04-07T03:08:12.795Z,101604.78
2023-04-07T03:10:39.614Z,101610.75
2023-04-07T03:13:06.121Z,101618.66
2023-04-07T03:15:32.603Z,101612.69
2023-04-07T03:17:59.041Z,101611.84
2023-04-07T03:20:25.540Z,101613.63
2023-04-07T03:22:51.931Z,101611.97
2023-04-07T03:25:18.424Z,101609.41
2023-04-07T03:27:45.035Z,101610.22
2023-04-07T03:30:11.865Z,101617.16
2023-04-07T03:32:38.255Z,101615.41
2023-04-07T03:35:04.894Z,101617.00
2023-04-07T03:37:31.273Z,101621.25
2023-04-07T03:39:57.685Z,101632.53
2023-04-07T03:42:24.077Z,101616.34
2023-04-07T03:44:50.483Z,101622.19
2023-04-07T03:47:16.897Z,101619.59
2023-04-07T03:49:43.289Z,101622.19
2023-04-07T03:52:09.919Z,101623.03
2023-04-07T03:54:36.672Z,101621.25
2023-04-07T03:57:03.304Z,101614.44
2023-04-07T03:59:29.738Z,101614.44
2023-04-07T04:01:56.331Z,101617.84
2023-04-07T04:04:24.391Z,101620.59
2023-04-07T04:06:51.141Z,101616.06
2023-04-07T04:09:17.601Z,101621.25
2023-04-07T04:11:44.209Z,101617.84
2023-04-07T04:14:10.662Z,101625.47
2023-04-07T04:16:37.131Z,101623.03
2023-04-07T04:19:03.573Z,101622.34
2023-04-07T04:21:30.141Z,101625.91
2023-04-07T04:23:56.596Z,101633.66
2023-04-07T04:26:25.962Z,101629.56
2023-04-07T04:28:53.074Z,101629.28
2023-04-07T04:31:19.651Z,101638.00
2023-04-07T04:33:46.464Z,101637.19
2023-04-07T04:36:13.322Z,101640.28
2023-04-07T04:38:39.946Z,101635.97
2023-04-07T04:41:06.818Z,101639.34
2023-04-07T04:43:33.239Z,101647.13
2023-04-07T04:45:59.673Z,101647.13
2023-04-07T04:48:26.103Z,101663.59
2023-04-07T04:50:52.646Z,101661.97
2023-04-07T04:53:19.071Z,101667.16
2023-04-07T04:55:51.818Z,101663.59
2023-04-07T04:58:19.295Z,101666.16
2023-04-07T05:00:45.862Z,101671.19
2023-04-07T05:03:12.648Z,101670.41
2023-04-07T05:05:39.267Z,101672.19
2023-04-07T05:08:06.328Z,101666.31
2023-04-07T05:10:32.767Z,101667.16
2023-04-07T05:12:59.144Z,101673.25
2023-04-07T05:15:25.769Z,101674.06
2023-04-07T05:17:52.232Z,101669.72
2023-04-07T05:20:18.806Z,101674.75
2023-04-07T05:22:45.397Z,101673.25
2023-04-07T05:25:11.891Z,101679.25
2023-04-07T05:27:38.257Z,101675.03
2023-04-07T05:30:05.426Z,101676.66
2023-04-07T05:32:31.875Z,101679.09
2023-04-07T05:34:58.299Z,101686.88
2023-04-07T05:37:24.756Z,101680.75
2023-04-07T05:39:51.224Z,101689.44
2023-04-07T05:42:17.658Z,101688.66
2023-04-07T05:44:44.060Z,101690.44
2023-04-07T05:47:11.363Z,101692.03
2023-04-07T05:49:37.807Z,101692.19
2023-04-07T05:52:05.954Z,101693.00
2023-04-07T05:54:33.976Z,101695.47
2023-04-07T05:57:02.797Z,101692.03
2023-04-07T05:59:29.476Z,101695.59
2023-04-07T06:01:57.100Z,101695.59
2023-04-07T06:04:24.847Z,101701.56
2023-04-07T06:06:55.314Z,101701.56
2023-04-07T06:09:22.658Z,101707.56
2023-04-07T06:11:49.312Z,101715.88
2023-04-07T06:14:18.842Z,101714.75
2023-04-07T06:16:45.857Z,101712.31
2023-04-07T06:19:13.791Z,101715.56
2023-04-07T06:21:40.784Z,101716.53
2023-04-07T06:24:13.259Z,101720.44
2023-04-07T06:26:41.593Z,101716.78
2023-04-07T06:29:08.225Z,101720.41
2023-04-07T06:31:35.114Z,101727.22
2023-04-07T06:34:01.587Z,101731.44
2023-04-07T06:36:28.955Z,101725.16
2023-04-07T06:38:56.408Z,101727.59
2023-04-07T06:41:22.822Z,101725.31
2023-04-07T06:43:51.335Z,101723.41
2023-04-07T06:46:18.498Z,101726.50
2023-04-07T06:48:45.541Z,101733.56
2023-04-07T06:51:12.171Z,101737.47
2023-04-07T06:53:38.643Z,101739.22
2023-04-07T06:56:07.718Z,101743.97
2023-04-07T06:58:35.344Z,101741.88
2023-04-07T07:01:04.096Z,101744.88
2023-04-07T07:03:31.617Z,101744.31
2023-04-07T07:05:59.021Z,101746.88
2023-04-07T07:08:26.780Z,101748.06
2023-04-07T07:10:53.520Z,101744.38
2023-04-07T07:13:26.080Z,101749.34
2023-04-07T07:15:53.412Z,101748.34
2023-04-07T07:18:20.786Z,101744.97
2023-04-07T07:20:47.328Z,101752.94
2023-04-07T07:23:13.821Z,101753.47
2023-04-07T07:25:40.663Z,101762.59
2023-04-07T07:28:07.199Z,101760.38
2023-04-07T07:30:33.848Z,101761.03
2023-04-07T07:33:00.670Z,101761.34
2023-04-07T07:35:27.229Z,101774.19
2023-04-07T07:37:53.885Z,101771.75
2023-04-07T07:40:20.461Z,101774.03
2023-04-07T07:42:47.769Z,101781.97
2023-04-07T07:45:14.416Z,101781.00
2023-04-07T07:47:42.084Z,101777.31
2023-04-07T07:50:08.905Z,101779.47
2023-04-07T07:52:35.576Z,101781.09
2023-04-07T07:55:02.569Z,101783.84
2023-04-07T07:57:30.919Z,101784.50
2023-04-07T07:59:58.440Z,101791.16
2023-04-07T08:02:30.874Z,101801.69
2023-04-07T08:04:57.922Z,101790.50
2023-04-07T08:07:24.355Z,101805.47
2023-04-07T08:09:50.916Z,101796.72
2023-04-07T08:12:17.643Z,101802.56
2023-04-07T08:14:44.429Z,101798.88
2023-04-07T08:17:11.059Z,101806.50
2023-04-07T08:19:37.520Z,101806.22
2023-04-07T08:22:04.062Z,101807.53
2023-04-07T08:24:33.609Z,101814.22
2023-04-07T08:27:01.366Z,101814.56
2023-04-07T08:29:28.255Z,101812.88
2023-04-07T08:31:55.871Z,101812.59
2023-04-07T08:34:22.484Z,101817.31
2023-04-07T08:36:49.483Z,101819.97
2023-04-07T08:39:16.030Z,101820.22
2023-04-07T08:41:44.654Z,101820.56
2023-04-07T08:44:11.625Z,101818.03
2023-04-07T08:46:41.829Z,101826.28
2023-04-07T08:49:11.221Z,101816.75
2023-04-07T08:51:38.739Z,101826.44
2023-04-07T08:54:10.596Z,101819.06
2023-04-07T08:56:41.500Z,101827.69
2023-04-07T08:59:11.760Z,101836.22
2023-04-07T09:01:39.486Z,101829.94
2023-04-07T09:04:07.567Z,101839.31
2023-04-07T09:06:36.632Z,101844.16
2023-04-07T09:09:05.917Z,101848.75
2023-04-07T09:11:39.981Z,101846.81
2023-04-07T09:14:06.721Z,101842.81
2023-04-07T09:16:33.469Z,101842.84
2023-04-07T09:19:00.145Z,101854.34
2023-04-07T09:21:27.342Z,101854.69
2023-04-07T09:23:53.793Z,101853.75
2023-04-07T09:26:22.835Z,101850.53
2023-04-07T09:28:52.148Z,101852.19
2023-04-07T09:31:19.395Z,101843.81
2023-04-07T09:33:46.378Z,101849.00
2023-04-07T09:36:13.195Z,101846.78
2023-04-07T09:38:41.265Z,101850.34
2023-04-07T09:41:16.368Z,101854.06
2023-04-07T09:43:44.796Z,101855.84
2023-04-07T09:46:16.543Z,101858.13
2023-04-07T09:48:46.630Z,101859.91
2023-04-07T09:51:18.601Z,101856.41
2023-04-07T09:53:51.351Z,101857.91
2023-04-07T09:56:22.155Z,101859.03
2023-04-07T09:58:51.647Z,101861.69
2023-04-07T10:01:18.452Z,101863.41
2023-04-07T10:03:48.885Z,101863.09
2023-04-07T10:06:16.479Z,101862.44
2023-04-07T10:08:43.673Z,101860.16
2023-04-07T10:11:10.967Z,101862.69
2023-04-07T10:13:40.229Z,101866.84
2023-04-07T10:16:08.183Z,101868.50
2023-04-07T10:18:36.860Z,101875.66
2023-04-07T10:21:07.823Z,101873.72
2023-04-07T10:23:56.682Z,101879.72
2023-04-07T10:26:26.452Z,101878.06
2023-04-07T10:29:00.610Z,101888.22
2023-04-07T10:31:27.476Z,101887.94
2023-04-07T10:33:55.012Z,101887.44
2023-04-07T10:36:22.042Z,101883.69
2023-04-07T10:39:06.888Z,101889.22
2023-04-07T10:41:39.226Z,101897.84
2023-04-07T10:44:08.072Z,101887.81
2023-04-07T10:46:47.178Z,101903.41
2023-04-07T10:49:16.997Z,101897.72
2023-04-07T10:51:44.918Z,101909.44
2023-04-07T10:54:21.051Z,101907.47
2023-04-07T10:57:02.790Z,101909.03
2023-04-07T10:59:30.024Z,101899.66
2023-04-07T11:02:15.048Z,101904.50
2023-04-07T11:04:43.983Z,101906.34
2023-04-07T11:07:11.613Z,101901.50
2023-04-07T11:09:38.016Z,101912.94
2023-04-07T11:12:04.944Z,101919.63
2023-04-07T11:14:33.204Z,101914.19
2023-04-07T11:17:01.486Z,101915.03
2023-04-07T11:19:28.369Z,101912.34
2023-04-07T11:22:28.519Z,101923.28
2023-04-07T11:24:56.098Z,101924.16
2023-04-07T11:27:22.658Z,101921.91
2023-04-07T11:29:49.187Z,101912.63
2023-04-07T11:32:16.534Z,101919.81
2023-04-07T11:34:43.111Z,101918.22
2023-04-07T11:37:23.214Z,101928.16
2023-04-07T11:39:57.954Z,101935.13
2023-04-07T11:42:38.386Z,101927.69
2023-04-07T11:45:07.752Z,101928.19
2023-04-07T11:47:39.546Z,101931.78
2023-04-07T11:50:07.065Z,101932.38
2023-04-07T11:52:48.129Z,101937.09
2023-04-07T11:55:20.858Z,101931.56
2023-04-07T11:57:48.546Z,101936.25
2023-04-07T12:00:15.717Z,101936.41
2023-04-07T12:02:42.745Z,101942.78
2023-04-07T12:05:10.555Z,101943.13
2023-04-07T12:07:38.517Z,101945.41
2023-04-07T12:10:21.660Z,101945.41
2023-04-07T12:12:48.545Z,101952.91
2023-04-07T12:15:15.064Z,101951.75
2023-04-07T12:17:47.307Z,101959.72
2023-04-07T12:20:14.729Z,101957.25
2023-04-07T12:22:42.098Z,101954.34
2023-04-07T12:25:08.813Z,101964.28
2023-04-07T12:27:42.618Z,101961.72
2023-04-07T12:30:10.520Z,101960.91
2023-04-07T12:32:40.624Z,101967.41
2023-04-07T12:35:07.262Z,101967.25
2023-04-07T12:37:33.693Z,101965.84
2023-04-07T12:40:00.595Z,101960.47
2023-04-07T12:42:27.556Z,101973.31
2023-04-07T12:44:53.938Z,101967.31
2023-04-07T12:47:20.741Z,101968.41
2023-04-07T12:49:49.586Z,101971.31
2023-04-07T12:52:16.821Z,101970.00
2023-04-07T12:54:44.377Z,101974.88
2023-04-07T12:57:11.237Z,101981.41
2023-04-07T12:59:37.806Z,101985.44
2023-04-07T13:02:04.429Z,101982.84
2023-04-07T13:04:31.376Z,101984.13
2023-04-07T13:06:58.165Z,101986.00
2023-04-07T13:09:25.625Z,101983.53
2023-04-07T13:11:52.051Z,101984.97
2023-04-07T13:14:18.600Z,101984.63
2023-04-07T13:16:45.137Z,101988.78
2023-04-07T13:19:11.604Z,102004.19
2023-04-07T13:21:46.307Z,101994.25
2023-04-07T13:24:14.259Z,102004.47
2023-04-07T13:26:40.690Z,101994.09
2023-04-07T13:29:07.120Z,102003.66
2023-04-07T13:31:33.487Z,102002.41
2023-04-07T13:33:59.910Z,102001.44
2023-04-07T13:36:28.153Z,101998.84
2023-04-07T13:38:56.913Z,102007.63
2023-04-07T13:41:23.382Z,102006.94
2023-04-07T13:43:49.976Z,102003.38
2023-04-07T13:46:27.811Z,102003.38
2023-04-07T13:48:55.287Z,102005.16
2023-04-07T13:51:21.995Z,102007.63
2023-04-07T13:53:48.656Z,102006.97
2023-04-07T13:56:15.364Z,102015.47
2023-04-07T13:58:41.810Z,102005.88
2023-04-07T14:01:08.506Z,102000.22
2023-04-07T14:03:35.373Z,102001.47
2023-04-07T14:06:02.747Z,102007.13
2023-04-07T14:08:29.629Z,102009.56
2023-04-07T14:10:56.144Z,102006.69
2023-04-07T14:13:23.091Z,102006.22
2023-04-07T14:15:50.037Z,102000.09
2023-04-07T14:18:17.381Z,102004.53
2023-04-07T14:20:43.818Z,102002.94
2023-04-07T14:23:10.675Z,102003.13
2023-04-07T14:25:37.360Z,102009.13
2023-04-07T14:28:04.077Z,102008.00
2023-04-07T14:30:31.119Z,102008.44
2023-04-07T14:32:59.398Z,102019.75
2023-04-07T14:35:25.878Z,102011.97
2023-04-07T14:37:52.497Z,102018.97
2023-04-07T14:40:21.338Z,102017.66
2023-04-07T14:42:48.652Z,102013.22
2023-04-07T14:45:15.714Z,102013.00
2023-04-07T14:47:42.174Z,102018.34
2023-04-07T14:50:08.775Z,102018.97
2023-04-07T14:52:35.162Z,102023.50
2023-04-07T14:55:01.706Z,102020.91
2023-04-07T14:57:28.444Z,102030.47
2023-04-07T14:59:54.919Z,102031.44
2023-04-07T15:02:25.986Z,102027.91
2023-04-07T15:04:52.690Z,102027.41
2023-04-07T15:07:19.263Z,102035.06
2023-04-07T15:10:04.072Z,102034.03
2023-04-07T15:12:33.298Z,102036.41
2023-04-07T15:14:59.718Z,102038.47
2023-04-07T15:17:40.087Z,102041.06
2023-04-07T15:20:09.913Z,102045.31
2023-04-07T15:22:36.948Z,102052.06
2023-04-07T15:25:03.782Z,102051.84
2023-04-07T15:27:30.552Z,102057.47
2023-04-07T15:29:56.981Z,102050.00
2023-04-07T15:32:23.364Z,102053.69
2023-04-07T15:34:50.011Z,102057.53
2023-04-07T15:37:19.036Z,102056.88
2023-04-07T15:39:45.481Z,102054.28
2023-04-07T15:42:12.841Z,102058.50
2023-04-07T15:44:39.931Z,102061.91
2023-04-07T15:47:07.170Z,102061.91
2023-04-07T15:49:34.395Z,102064.22
2023-04-07T15:52:04.799Z,102068.59
2023-04-07T15:54:31.935Z,102065.47
2023-04-07T15:56:58.491Z,102070.97
2023-04-07T15:59:25.202Z,102073.31
2023-04-07T16:01:51.868Z,102067.59
2023-04-07T16:04:19.286Z,102072.00
2023-04-07T16:06:45.917Z,102075.25
2023-04-07T16:09:12.397Z,102072.78
2023-04-07T16:11:38.868Z,102077.97
2023-04-07T16:14:07.143Z,102080.72
2023-04-07T16:16:37.049Z,102074.72
2023-04-07T16:19:03.656Z,102081.56
2023-04-07T16:21:31.431Z,102086.06
2023-04-07T16:23:57.857Z,102086.34
2023-04-07T16:26:24.267Z,102083.75
2023-04-07T16:28:50.918Z,102090.06
2023-04-07T16:31:17.338Z,102091.81
2023-04-07T16:33:43.792Z,102089.91
2023-04-07T16:36:10.210Z,102090.06
2023-04-07T16:38:36.705Z,102092.00
2023-04-07T16:41:04.740Z,102096.34
2023-04-07T16:43:31.554Z,102104.28
2023-04-07T16:46:00.074Z,102105.38
2023-04-07T16:48:26.772Z,102108.84
2023-04-07T16:50:53.192Z,102105.03
2023-04-07T16:53:21.235Z,102110.06
2023-04-07T16:55:48.147Z,102106.81
2023-04-07T16:58:18.676Z,102117.03
2023-04-07T17:00:45.331Z,102115.13
2023-04-07T17:03:14.332Z,102113.66
2023-04-07T17:05:40.847Z,102120.06
2023-04-07T17:08:07.214Z,102121.72
2023-04-07T17:10:33.621Z,102121.72
2023-04-07T17:13:00.078Z,102127.69
2023-04-07T17:15:26.567Z,102122.78
2023-04-07T17:17:53.044Z,102125.66
2023-04-07T17:20:19.653Z,102133.72
2023-04-07T17:22:46.478Z,102127.59
2023-04-07T17:25:12.882Z,102138.63
2023-04-07T17:27:39.368Z,102144.94
2023-04-07T17:30:07.427Z,102140.16
2023-04-07T17:32:33.982Z,102145.78
2023-04-07T17:35:00.610Z,102156.28
2023-04-07T17:37:27.005Z,102153.84
2023-04-07T17:39:53.357Z,102160.53
2023-04-07T17:42:19.776Z,102155.75
2023-04-07T17:44:46.909Z,102160.13
2023-04-07T17:47:13.348Z,102165.19
2023-04-07T17:49:40.444Z,102172.97
2023-04-07T17:52:07.170Z,102173.09
2023-04-07T17:54:34.522Z,102182.75
2023-04-07T17:57:01.099Z,102176.09
2023-04-07T17:59:27.601Z,102176.38
2023-04-07T18:01:54.107Z,102178.44
2023-04-07T18:04:21.143Z,102178.44
2023-04-07T18:06:47.737Z,102186.22
2023-04-07T18:09:14.716Z,102181.69
2023-04-07T18:11:41.457Z,102188.66
2023-04-07T18:14:07.922Z,102189.75
2023-04-07T18:16:35.116Z,102201.34
2023-04-07T18:19:02.455Z,102194.66
2023-04-07T18:21:29.493Z,102201.63
2023-04-07T18:23:55.873Z,102205.03
2023-04-07T18:26:22.449Z,102202.44
2023-04-07T18:28:48.914Z,102200.13
2023-04-07T18:31:15.862Z,102202.72
2023-04-07T18:33:42.267Z,102206.97
2023-04-07T18:36:08.827Z,102207.91
2023-04-07T18:38:36.366Z,102217.72
2023-04-07T18:41:03.248Z,102211.84
2023-04-07T18:43:30.250Z,102212.81
2023-04-07T18:45:56.854Z,102221.53
2023-04-07T18:48:23.295Z,102220.72
2023-04-07T18:50:54.501Z,102230.41
2023-04-07T18:53:22.328Z,102228.63
2023-04-07T18:55:49.442Z,102235.59
2023-04-07T18:58:16.327Z,102236.53
2023-04-07T19:00:43.178Z,102247.59
2023-04-07T19:03:10.066Z,102241.88
2023-04-07T19:05:40.239Z,102249.63
2023-04-07T19:08:07.187Z,102249.09
2023-04-07T19:10:34.905Z,102253.44
2023-04-07T19:13:01.794Z,102256.31
2023-04-07T19:15:32.769Z,102258.06
2023-04-07T19:17:59.232Z,102261.63
2023-04-07T19:20:25.689Z,102252.22
2023-04-07T19:22:52.298Z,102270.34
2023-04-07T19:25:18.873Z,102265.16
2023-04-07T19:27:46.280Z,102262.56
2023-04-07T19:30:13.331Z,102265.16
2023-04-07T19:32:40.907Z,102270.34
2023-04-07T19:35:07.756Z,102265.97
2023-04-07T19:37:34.808Z,102265.97
2023-04-07T19:40:03.379Z,102272.94
2023-04-07T19:42:30.220Z,102279.91
2023-04-07T19:44:58.445Z,102277.19
2023-04-07T19:47:25.034Z,102281.53
2023-04-07T19:49:51.661Z,102286.56
2023-04-07T19:52:18.115Z,102283.97
2023-04-07T19:54:44.503Z,102293.41
2023-04-07T19:57:11.578Z,102286.44
2023-04-07T19:59:37.940Z,102289.03
2023-04-07T20:02:04.472Z,102294.88
2023-04-07T20:04:31.547Z,102291.50
2023-04-07T20:06:57.961Z,102299.25
2023-04-07T20:09:26.907Z,102298.59
2023-04-07T20:11:53.995Z,102303.63
2023-04-07T20:14:20.680Z,102303.78
2023-04-07T20:16:47.159Z,102297.78
2023-04-07T20:19:13.645Z,102299.53
2023-04-07T20:21:43.073Z,102302.13
2023-04-07T20:24:09.581Z,102301.44
2023-04-07T20:26:36.095Z,102304.97
2023-04-07T20:29:02.617Z,102304.16
2023-04-07T20:31:29.211Z,102311.00
2023-04-07T20:33:55.650Z,102311.13
2023-04-07T20:36:22.204Z,102317.00
2023-04-07T20:38:48.782Z,102319.44
2023-04-07T20:41:19.029Z,102314.25
2023-04-07T20:43:45.707Z,102320.25
2023-04-07T20:46:12.220Z,102320.25
2023-04-07T20:48:38.842Z,102322.97
2023-04-07T20:51:05.278Z,102325.56
2023-04-07T20:53:31.696Z,102329.00
2023-04-07T20:55:59.032Z,102325.56
2023-04-07T20:58:25.713Z,102330.06
2023-04-07T21:00:58.021Z,102330.19
2023-04-07T21:03:28.754Z,102325.28
2023-04-07T21:05:56.668Z,102333.19
2023-04-07T21:08:24.449Z,102337.56
2023-04-07T21:10:52.300Z,102335.22
2023-04-07T21:13:19.814Z,102337.94
2023-04-07T21:15:46.439Z,102341.75
2023-04-07T21:18:12.907Z,102341.19
2023-04-07T21:20:39.946Z,102341.41
2023-04-07T21:23:08.662Z,102340.72
2023-04-07T21:25:38.322Z,102345.22
2023-04-07T21:28:04.891Z,102338.66
2023-04-07T21:30:33.204Z,102337.03
2023-04-07T21:32:59.872Z,102341.38
2023-04-07T21:35:28.568Z,102344.09
2023-04-07T21:37:55.971Z,102344.66
2023-04-07T21:40:23.350Z,102344.78
2023-04-07T21:42:51.820Z,102351.41
2023-04-07T21:45:18.286Z,102352.88
2023-04-07T21:47:44.808Z,102346.31
2023-04-07T21:50:11.611Z,102342.34
2023-04-07T21:52:37.997Z,102339.16
2023-04-07T21:55:04.770Z,102338.47
2023-04-07T21:57:31.189Z,102353.31
2023-04-07T21:59:57.664Z,102348.78
2023-04-07T22:02:24.187Z,102359.50
2023-04-07T22:04:50.956Z,102358.94
2023-04-07T22:07:17.446Z,102359.06
2023-04-07T22:09:43.855Z,102359.06
2023-04-07T22:12:10.295Z,102364.63
2023-04-07T22:14:36.763Z,102362.66
2023-04-07T22:17:03.257Z,102364.66
2023-04-07T22:19:29.714Z,102374.88
2023-04-07T22:21:56.391Z,102378.88
2023-04-07T22:24:22.800Z,102378.69
2023-04-07T22:26:49.262Z,102380.34
2023-04-07T22:29:15.676Z,102380.53
2023-04-07T22:31:42.254Z,102381.13
2023-04-07T22:34:09.865Z,102377.31
2023-04-07T22:36:36.606Z,102385.53
2023-04-07T22:39:04.717Z,102388.72
2023-04-07T22:41:31.223Z,102389.66
2023-04-07T22:43:58.276Z,102406.22
2023-04-07T22:46:24.732Z,102393.66
2023-04-07T22:48:51.912Z,102391.66
2023-04-07T22:51:18.453Z,102400.00
2023-04-07T22:53:45.428Z,102400.81
2023-04-07T22:56:12.499Z,102411.16
2023-04-07T22:58:39.065Z,102409.66
2023-04-07T23:01:05.689Z,102409.03
2023-04-07T23:03:32.345Z,102408.34
2023-04-07T23:06:01.101Z,102412.84
2023-04-07T23:08:27.517Z,102417.31
2023-04-07T23:10:54.067Z,102416.25
2023-04-07T23:13:20.496Z,102416.06
2023-04-07T23:15:46.949Z,102417.72
2023-04-07T23:18:13.392Z,102414.16
2023-04-07T23:20:41.933Z,102419.34
2023-04-07T23:23:08.511Z,102412.41
2023-04-07T23:25:34.921Z,102422.03
2023-04-07T23:28:01.296Z,102411.97
2023-04-07T23:30:27.745Z,102413.81
2023-04-07T23:32:54.338Z,102415.03
2023-04-07T23:35:20.850Z,102417.41
2023-04-07T23:37:47.522Z,102413.41
2023-04-07T23:40:14.116Z,102415.63
2023-04-07T23:42:40.524Z,102422.44
2023-04-07T23:45:07.307Z,102423.25
2023-04-07T23:47:33.756Z,102425.84
2023-04-07T23:50:00.419Z,102424.19
2023-04-07T23:52:27.122Z,102424.06
2023-04-07T23:54:53.562Z,102424.91
2023-04-07T23:57:20.033Z,102422.22
2023-04-07T23:59:46.425Z,102412.91
